Main page
METAR-TAF:

METAR-TAF

Airports :

Middle Wallop, England

AAC Middle Wallop

latitude: 51-09N, longitude: 001-34W, elevation: 91 m

Current weather observation

The report was made 33 minutes ago, at 22:50 UTC
Wind 7 kt from the South/Southwest
Temperature 15°C
Humidity 94%
Pressure 1011 hPa
Visibility 10 km or more
Few clouds at a height of 1100 ft
Broken clouds at a height of 25000 ft

METAR: EGVP 172250Z 21007KT 9999 FEW011 BKN250 15/14 Q1011 BLU TEMPO SCT011 GRN

Time: 00:23 (23:23 UTC)

Forecast

The report was made 3 hours and 58 minutes ago, at 19:25 UTC
Forecast valid from 17 at 21 UTC to 18 at 02 UTC
Wind 10 kt from the Southwest
Visibility 10 km or more
Few clouds at a height of 700 ft
Temporary
from 17 at 21 UTC to 18 at 02 UTC
Scattered clouds at a height of 700 ft

TAF: EGVP 171925Z 1721/1802 22010KT 9999 FEW007 TEMPO 1721/1802 SCT007

Weather observations and forecasts of more than 4000 airports (METAR and TAF reports).

The available stations are represented by yellow and red dots on the map.

Hover mouse over dot to see the name of the station.

Then click to see weather observations and forecasts.

To change the map : click on the green buttons with a black cross to zoom in, on the green button with a dash to zoom out, or on the green arrows for adjacent maps.


METAR-TAF: